Monday, August 29, 2016
07:17 UTC
  |  Log In   |  Register Free
Airport Search:

Shenandoah Valley Regional Airport
(KSHD)

Shenandoah Valley Regional Airport Diagram
No Airport Diagram Available

FAA data valid effective Jul 21 2016 - Sep 15 2016 (unless otherwise noted).

 
 
 
 
 
 
 
 
 
 
 
 
 
 
Current Aviation Weather for KSHD

Weather Summary


The most recent METAR observation for SHD was updated at: 12:55 UTC
METAR for SHD is not available. Closest METAR is for
METAR

METAR KSHD 290655Z 25003KT 10SM CLR 18/17 A3023 RMK AO2 T01800174

METAR KSHD 290635Z 00000KT 10SM CLR 18/18 A3023 RMK AO2 T01820175

METAR KSHD 290615Z 00000KT 10SM CLR 18/17 A3023 RMK AO2 T01810172

METAR KSHD 290555Z 00000KT 10SM SCT050 18/17 A3024 RMK AO2 T01830174 10258 20183 403100169

METAR KSHD 290535Z 00000KT 10SM CLR 19/17 A3024 RMK AO2 T01850174

METAR KSHD 290515Z 00000KT 10SM CLR 18/17 A3025 RMK AO2 T01840174

METAR KSHD 290455Z 00000KT 10SM CLR 20/18 A3025 RMK AO2 T01980178

METAR KSHD 290435Z 00000KT 10SM CLR 20/18 A3026 RMK AO2 T02020178

METAR KSHD 290415Z 00000KT 10SM CLR 19/17 A3025 RMK AO2 T01860174

METAR KCHO 290653Z 28003KT 10SM CLR 21/19 A3019 RMK AO2 SLP214 T02060189

METAR KLUA 290655Z 00000KT 10SM CLR A3018 RMK AO2

METAR KVBW METAR not available

TAF for SHD is not available.
TAF

KCHO - TAF KCHO 290527Z 2906/3006 00000KT P6SM SKC

KCHO - FM291000 00000KT 5SM BR FEW250

KCHO - FM291300 00000KT P6SM FEW200

KCHO - FM300200 00000KT P6SM BKN070

KCHO - FM300500 00000KT P6SM SCT060 =

GlobalAir.com is loading additional information.
 Current Weather at SHD
65.0 F° (18.3 C°)

North winds at 0.0 mph
Pressure:
30.24 in
Humidity:
95%
Wind:
North at 0.0 mph
Dew Point:
63.3 F° (17.4 C°)
Visibility:
10.00 mi
SHD NOAA Radar




Find All Airport Services Find A Hotel Find A Rental Car Find A Golf Course Find A Restaurant $100 Hamburger



Airport Weather Forecast for KSHD

Translated METAR for KSHD (0655 UTC)
METAR:
KSHD 290655Z AUTO Shenandoah Valley Regional, Staunton/Waynesboro/Harr, VA (KSHD). Aug 29, 0655Z, Automated. Wind from 250° at 3 knots, 10 statute miles visibility, Clear Skies, Temperature 18°C, Dewpoint 17°C, Altimeter is 30.23. Remarks: automated station with precipitation discriminator hourly temp 18.0°C dewpoint 17.4°C
Conditions at:
KSHD (Shenandoah Valley Rgnl, VA) observed 0655 UTC 29 August 2016
Temperature:
65.0 F° (18.3 C°)
Dewpoint:
not reported - refer to area weather report
Pressure:
30.24 Hg
Winds:
not reported
Visibility:
10.00
Ceiling:
at least 12,000 feet AGL
Clouds:
not reported - refer to area weather report
Remarks:
site is un-manned

Translated TAF for TAF for SHD is not available. Refer to local area forecast.
FBO's on the Field
FBO Company Facility Photos Services Transportation Aviation Fuel Prices: Prices include tax
Catering Weather Repair Courtesy Rental Type 100LL JetA JetA+ MOGAS 8087
 
Avnet Shenandoah Valley

This FBO has not yet been rated
FS:Avfuel
Last Updated: Jul-26
Login to update fuel prices
SS:
Contact Avnet Shenandoah ValleyMore FBO Information
 
Add another FBO Facility Photos Catering Weather Repair Courtesy Rental Type 100LL JetA JetA+ MOGAS 8087
Services Transportation Aviation Fuel Prices: Prices include tax


model-print
model-print
model-print
model-print